Bismarck (BIS/KBIS)

Map

Destinations

Information

Location
Bismarck, ND
Local Time
08:13 / 8:13 am
GMT Time
14:13 / 2:13 pm
Gates
Unassigned
No FAA reported delays
METAR KBIS 221352Z 27008KT 6SM BR OVC009 M02/M03 A2975 RMK AO2 CIG 008V014 SLP094 T10221033
TAF KBIS 221250Z 2213/2312 27008KT P6SM OVC009 TEMPO 2213/2215 5SM BR OVC007 FM221700 28007KT P6SM BKN015 OVC025 FM222200 28007KT P6SM OVC015 FM230700 26004KT 5SM BR OVC010
  • No charts available